Hlavní strana
METAR-TAF:

METAR-TAF

Letiště :

Albury, Austrálie

zeměpisná šířka: 36-04-06S, zeměpisná délka: 146-57-30E, výška: 164 m

Aktuální stav počasí

Zpráva byla vytvořena před 18 minutami, v 12:00 UTC
Jihojihovýchodní vítr 5 kt
Teplota 15°C
Vlhkost vzduchu 72%
Tlak 1024 hPa
Viditelnost 10 km a více

METAR: YMAY 081200Z AUTO 16005KT 9999 // NCD 15/10 Q1024

Čas: 22:18 (12:18 UTC)


TAF: chybějící

Stav a předpovědi počasí z více než 4 000 letišť (zprávy METAR a TAF).

Červené a žluté tečky na mapě představují dostupné meteorologické stanice.

Když kurzor umístíte na tečku, zobrazí se název stanice.

Pak kliknutím zobrazíte stav a předpověď počasí.

Chcete-li změnit mapu, kliknutím na zelené tlačítko se znaménkem +mapu přiblížíte, kliknutím na zelené tlačítko se znaménkem – mapu oddálíte a kliknutím na zelené šipky přejdete na sousední mapy.


METAR-TAF: